sensor_id;sensor_type;location;lat;lon;timestamp;temperature;humidity
14188;DHT22;7175;51.978;5.330;2023-03-19T00:02:27;11.30;99.90
14188;DHT22;7175;51.978;5.330;2023-03-19T00:04:56;11.20;99.90
14188;DHT22;7175;51.978;5.330;2023-03-19T00:07:24;11.30;99.90
14188;DHT22;7175;51.978;5.330;2023-03-19T00:09:53;11.20;99.90
14188;DHT22;7175;51.978;5.330;2023-03-19T00:12:21;11.20;99.90
14188;DHT22;7175;51.978;5.330;2023-03-19T00:14:49;11.20;99.90
14188;DHT22;7175;51.978;5.330;2023-03-19T00:17:17;11.20;99.90
14188;DHT22;7175;51.978;5.330;2023-03-19T00:19:45;11.20;99.90
14188;DHT22;7175;51.978;5.330;2023-03-19T00:22:15;11.10;99.90
14188;DHT22;7175;51.978;5.330;2023-03-19T00:24:43;11.10;99.90
14188;DHT22;7175;51.978;5.330;2023-03-19T00:27:11;11.10;99.90
14188;DHT22;7175;51.978;5.330;2023-03-19T00:29:39;11.10;99.90
14188;DHT22;7175;51.978;5.330;2023-03-19T00:32:08;11.10;99.90
14188;DHT22;7175;51.978;5.330;2023-03-19T00:34:36;11.10;99.90
14188;DHT22;7175;51.978;5.330;2023-03-19T00:37:05;11.10;99.90
14188;DHT22;7175;51.978;5.330;2023-03-19T00:39:34;11.10;99.90
14188;DHT22;7175;51.978;5.330;2023-03-19T00:42:03;11.10;99.90
14188;DHT22;7175;51.978;5.330;2023-03-19T00:44:31;11.10;99.90
14188;DHT22;7175;51.978;5.330;2023-03-19T00:46:59;11.00;99.90
14188;DHT22;7175;51.978;5.330;2023-03-19T00:49:27;11.00;99.90
14188;DHT22;7175;51.978;5.330;2023-03-19T00:51:55;11.00;99.90
14188;DHT22;7175;51.978;5.330;2023-03-19T00:54:23;11.00;99.90
14188;DHT22;7175;51.978;5.330;2023-03-19T00:56:53;10.90;99.90
14188;DHT22;7175;51.978;5.330;2023-03-19T00:59:21;10.90;99.90
14188;DHT22;7175;51.978;5.330;2023-03-19T01:01:51;10.80;99.90
14188;DHT22;7175;51.978;5.330;2023-03-19T01:04:19;10.80;99.90
14188;DHT22;7175;51.978;5.330;2023-03-19T01:06:47;10.70;99.90
14188;DHT22;7175;51.978;5.330;2023-03-19T01:09:15;10.70;99.90
14188;DHT22;7175;51.978;5.330;2023-03-19T01:11:43;10.60;99.90
14188;DHT22;7175;51.978;5.330;2023-03-19T01:14:14;10.60;99.90
14188;DHT22;7175;51.978;5.330;2023-03-19T01:16:42;10.60;99.90
14188;DHT22;7175;51.978;5.330;2023-03-19T01:19:11;10.60;99.90
14188;DHT22;7175;51.978;5.330;2023-03-19T01:21:39;10.60;99.90
14188;DHT22;7175;51.978;5.330;2023-03-19T01:24:11;10.60;99.90
14188;DHT22;7175;51.978;5.330;2023-03-19T01:26:40;10.50;99.90
14188;DHT22;7175;51.978;5.330;2023-03-19T01:29:08;10.50;99.90
14188;DHT22;7175;51.978;5.330;2023-03-19T01:31:38;10.50;99.90
14188;DHT22;7175;51.978;5.330;2023-03-19T01:34:06;10.40;99.90
14188;DHT22;7175;51.978;5.330;2023-03-19T01:36:34;10.40;99.90
14188;DHT22;7175;51.978;5.330;2023-03-19T01:39:02;10.40;99.90
14188;DHT22;7175;51.978;5.330;2023-03-19T01:41:30;10.40;99.90
14188;DHT22;7175;51.978;5.330;2023-03-19T01:43:58;10.50;99.90
14188;DHT22;7175;51.978;5.330;2023-03-19T01:46:30;10.50;99.90
14188;DHT22;7175;51.978;5.330;2023-03-19T01:49:04;10.50;99.90
14188;DHT22;7175;51.978;5.330;2023-03-19T01:51:35;10.50;99.90
14188;DHT22;7175;51.978;5.330;2023-03-19T01:54:07;10.50;99.90
14188;DHT22;7175;51.978;5.330;2023-03-19T01:56:38;10.50;99.90
14188;DHT22;7175;51.978;5.330;2023-03-19T01:59:11;10.60;99.90
14188;DHT22;7175;51.978;5.330;2023-03-19T02:01:45;10.50;99.90
14188;DHT22;7175;51.978;5.330;2023-03-19T02:04:15;10.60;99.90
14188;DHT22;7175;51.978;5.330;2023-03-19T02:06:44;10.50;99.90
14188;DHT22;7175;51.978;5.330;2023-03-19T02:09:13;10.50;99.90
14188;DHT22;7175;51.978;5.330;2023-03-19T02:11:42;10.50;99.90
14188;DHT22;7175;51.978;5.330;2023-03-19T02:14:10;10.50;99.90
14188;DHT22;7175;51.978;5.330;2023-03-19T02:16:39;10.50;99.90
14188;DHT22;7175;51.978;5.330;2023-03-19T02:19:12;10.50;99.90
14188;DHT22;7175;51.978;5.330;2023-03-19T02:21:44;10.50;99.90
14188;DHT22;7175;51.978;5.330;2023-03-19T02:24:16;10.50;99.90
14188;DHT22;7175;51.978;5.330;2023-03-19T02:26:48;10.40;99.90
14188;DHT22;7175;51.978;5.330;2023-03-19T02:29:17;10.30;99.90
14188;DHT22;7175;51.978;5.330;2023-03-19T02:31:45;10.30;99.90
14188;DHT22;7175;51.978;5.330;2023-03-19T02:34:32;10.30;99.90
14188;DHT22;7175;51.978;5.330;2023-03-19T02:37:04;10.30;99.90
14188;DHT22;7175;51.978;5.330;2023-03-19T02:39:39;10.30;99.90
14188;DHT22;7175;51.978;5.330;2023-03-19T02:42:11;10.30;99.90
14188;DHT22;7175;51.978;5.330;2023-03-19T02:44:40;10.20;99.90
14188;DHT22;7175;51.978;5.330;2023-03-19T02:47:08;10.20;99.90
14188;DHT22;7175;51.978;5.330;2023-03-19T02:49:36;10.30;99.90
14188;DHT22;7175;51.978;5.330;2023-03-19T02:52:04;10.30;99.90
14188;DHT22;7175;51.978;5.330;2023-03-19T02:54:33;10.30;99.90
14188;DHT22;7175;51.978;5.330;2023-03-19T02:57:01;10.40;99.90
14188;DHT22;7175;51.978;5.330;2023-03-19T02:59:31;10.30;99.90
14188;DHT22;7175;51.978;5.330;2023-03-19T03:01:59;10.40;99.90
14188;DHT22;7175;51.978;5.330;2023-03-19T03:04:27;10.40;99.90
14188;DHT22;7175;51.978;5.330;2023-03-19T03:06:56;10.40;99.90
14188;DHT22;7175;51.978;5.330;2023-03-19T03:09:24;10.40;99.90
14188;DHT22;7175;51.978;5.330;2023-03-19T03:11:53;10.40;99.90
14188;DHT22;7175;51.978;5.330;2023-03-19T03:14:21;10.40;99.90
14188;DHT22;7175;51.978;5.330;2023-03-19T03:16:51;10.40;99.90
14188;DHT22;7175;51.978;5.330;2023-03-19T03:19:20;10.40;99.90
14188;DHT22;7175;51.978;5.330;2023-03-19T03:21:49;10.40;99.90
14188;DHT22;7175;51.978;5.330;2023-03-19T03:24:17;10.30;99.90
14188;DHT22;7175;51.978;5.330;2023-03-19T03:26:46;10.30;99.90
14188;DHT22;7175;51.978;5.330;2023-03-19T03:29:14;10.30;99.90
14188;DHT22;7175;51.978;5.330;2023-03-19T03:31:42;10.20;99.90
14188;DHT22;7175;51.978;5.330;2023-03-19T03:34:12;10.20;99.90
14188;DHT22;7175;51.978;5.330;2023-03-19T03:36:40;10.20;99.90
14188;DHT22;7175;51.978;5.330;2023-03-19T03:39:08;10.10;99.90
14188;DHT22;7175;51.978;5.330;2023-03-19T03:41:36;10.10;99.90
14188;DHT22;7175;51.978;5.330;2023-03-19T03:44:04;10.00;99.90
14188;DHT22;7175;51.978;5.330;2023-03-19T03:46:33;10.00;99.90
14188;DHT22;7175;51.978;5.330;2023-03-19T03:49:01;10.00;99.90
14188;DHT22;7175;51.978;5.330;2023-03-19T03:51:31;9.90;99.90
14188;DHT22;7175;51.978;5.330;2023-03-19T03:53:59;9.90;99.90
14188;DHT22;7175;51.978;5.330;2023-03-19T03:56:27;9.80;99.90
14188;DHT22;7175;51.978;5.330;2023-03-19T03:58:55;9.80;99.90
14188;DHT22;7175;51.978;5.330;2023-03-19T04:01:23;9.70;99.90
14188;DHT22;7175;51.978;5.330;2023-03-19T04:03:51;9.70;99.90
14188;DHT22;7175;51.978;5.330;2023-03-19T04:06:21;9.70;99.90
14188;DHT22;7175;51.978;5.330;2023-03-19T04:08:52;9.60;99.90
14188;DHT22;7175;51.978;5.330;2023-03-19T04:11:20;9.60;99.90
14188;DHT22;7175;51.978;5.330;2023-03-19T04:13:49;9.60;99.90
14188;DHT22;7175;51.978;5.330;2023-03-19T04:16:18;9.50;99.90
14188;DHT22;7175;51.978;5.330;2023-03-19T04:18:47;9.50;99.90
14188;DHT22;7175;51.978;5.330;2023-03-19T04:21:15;9.40;99.90
14188;DHT22;7175;51.978;5.330;2023-03-19T04:23:45;9.30;99.90
14188;DHT22;7175;51.978;5.330;2023-03-19T04:26:15;9.30;99.90
14188;DHT22;7175;51.978;5.330;2023-03-19T04:28:43;9.20;99.90
14188;DHT22;7175;51.978;5.330;2023-03-19T04:31:11;9.10;99.90
14188;DHT22;7175;51.978;5.330;2023-03-19T04:33:39;9.10;99.90
14188;DHT22;7175;51.978;5.330;2023-03-19T04:36:08;9.10;99.90
14188;DHT22;7175;51.978;5.330;2023-03-19T04:38:36;9.10;99.90
14188;DHT22;7175;51.978;5.330;2023-03-19T04:41:04;9.10;99.90
14188;DHT22;7175;51.978;5.330;2023-03-19T04:43:34;9.00;99.90
14188;DHT22;7175;51.978;5.330;2023-03-19T04:46:02;9.00;99.90
14188;DHT22;7175;51.978;5.330;2023-03-19T04:48:33;8.90;99.90
14188;DHT22;7175;51.978;5.330;2023-03-19T04:51:02;8.90;99.90
14188;DHT22;7175;51.978;5.330;2023-03-19T04:53:30;8.90;99.90
14188;DHT22;7175;51.978;5.330;2023-03-19T04:55:58;8.90;99.90
14188;DHT22;7175;51.978;5.330;2023-03-19T04:58:27;8.80;99.90
14188;DHT22;7175;51.978;5.330;2023-03-19T05:00:56;8.80;99.90
14188;DHT22;7175;51.978;5.330;2023-03-19T05:03:25;8.70;99.90
14188;DHT22;7175;51.978;5.330;2023-03-19T05:05:53;8.70;99.90
14188;DHT22;7175;51.978;5.330;2023-03-19T05:08:21;8.70;99.90
14188;DHT22;7175;51.978;5.330;2023-03-19T05:10:49;8.70;99.90
14188;DHT22;7175;51.978;5.330;2023-03-19T05:13:17;8.60;99.90
14188;DHT22;7175;51.978;5.330;2023-03-19T05:15:47;8.60;99.90
14188;DHT22;7175;51.978;5.330;2023-03-19T05:18:17;8.50;99.90
14188;DHT22;7175;51.978;5.330;2023-03-19T05:20:45;8.50;99.90
14188;DHT22;7175;51.978;5.330;2023-03-19T05:23:13;8.50;99.90
14188;DHT22;7175;51.978;5.330;2023-03-19T05:25:41;8.50;99.90
14188;DHT22;7175;51.978;5.330;2023-03-19T05:28:09;8.40;99.90
14188;DHT22;7175;51.978;5.330;2023-03-19T05:30:38;8.50;99.90
14188;DHT22;7175;51.978;5.330;2023-03-19T05:33:06;8.50;99.90
14188;DHT22;7175;51.978;5.330;2023-03-19T05:35:36;8.40;99.90
14188;DHT22;7175;51.978;5.330;2023-03-19T05:38:04;8.40;99.90
14188;DHT22;7175;51.978;5.330;2023-03-19T05:40:33;8.40;99.90
14188;DHT22;7175;51.978;5.330;2023-03-19T05:43:02;8.30;99.90
14188;DHT22;7175;51.978;5.330;2023-03-19T05:45:31;8.30;99.90
14188;DHT22;7175;51.978;5.330;2023-03-19T05:47:59;8.20;99.90
14188;DHT22;7175;51.978;5.330;2023-03-19T05:50:27;8.30;99.90
14188;DHT22;7175;51.978;5.330;2023-03-19T05:52:57;8.30;99.90
14188;DHT22;7175;51.978;5.330;2023-03-19T05:55:25;8.40;99.90
14188;DHT22;7175;51.978;5.330;2023-03-19T05:57:53;8.30;99.90
14188;DHT22;7175;51.978;5.330;2023-03-19T06:00:22;8.30;99.90
14188;DHT22;7175;51.978;5.330;2023-03-19T06:02:50;8.40;99.90
14188;DHT22;7175;51.978;5.330;2023-03-19T06:05:19;8.40;99.90
14188;DHT22;7175;51.978;5.330;2023-03-19T06:07:47;8.40;99.90
14188;DHT22;7175;51.978;5.330;2023-03-19T06:10:17;8.30;99.90
14188;DHT22;7175;51.978;5.330;2023-03-19T06:12:45;8.30;99.90
14188;DHT22;7175;51.978;5.330;2023-03-19T06:15:13;8.30;99.90
14188;DHT22;7175;51.978;5.330;2023-03-19T06:17:41;8.30;99.90
14188;DHT22;7175;51.978;5.330;2023-03-19T06:20:11;8.30;99.90
14188;DHT22;7175;51.978;5.330;2023-03-19T06:22:39;8.20;99.90
14188;DHT22;7175;51.978;5.330;2023-03-19T06:25:07;8.20;99.90
14188;DHT22;7175;51.978;5.330;2023-03-19T06:27:37;8.30;99.90
14188;DHT22;7175;51.978;5.330;2023-03-19T06:30:07;8.30;99.90
14188;DHT22;7175;51.978;5.330;2023-03-19T06:32:35;8.20;99.90
14188;DHT22;7175;51.978;5.330;2023-03-19T06:35:04;8.30;99.90
14188;DHT22;7175;51.978;5.330;2023-03-19T06:37:35;8.30;99.90
14188;DHT22;7175;51.978;5.330;2023-03-19T06:40:04;8.30;99.90
14188;DHT22;7175;51.978;5.330;2023-03-19T06:42:32;8.40;99.90
14188;DHT22;7175;51.978;5.330;2023-03-19T06:45:02;8.40;99.90
14188;DHT22;7175;51.978;5.330;2023-03-19T06:47:30;8.40;99.90
14188;DHT22;7175;51.978;5.330;2023-03-19T06:49:58;8.50;99.90
14188;DHT22;7175;51.978;5.330;2023-03-19T06:52:26;8.60;99.90
14188;DHT22;7175;51.978;5.330;2023-03-19T06:54:55;8.70;99.90
14188;DHT22;7175;51.978;5.330;2023-03-19T06:57:23;8.70;99.90
14188;DHT22;7175;51.978;5.330;2023-03-19T06:59:51;8.80;99.90
14188;DHT22;7175;51.978;5.330;2023-03-19T07:02:20;8.80;99.90
14188;DHT22;7175;51.978;5.330;2023-03-19T07:04:49;8.90;99.90
14188;DHT22;7175;51.978;5.330;2023-03-19T07:07:18;9.00;99.90
14188;DHT22;7175;51.978;5.330;2023-03-19T07:09:46;9.00;99.90
14188;DHT22;7175;51.978;5.330;2023-03-19T07:12:15;9.10;99.90
14188;DHT22;7175;51.978;5.330;2023-03-19T07:14:43;9.10;99.90
14188;DHT22;7175;51.978;5.330;2023-03-19T07:17:11;9.20;99.90
14188;DHT22;7175;51.978;5.330;2023-03-19T07:19:41;9.30;99.90
14188;DHT22;7175;51.978;5.330;2023-03-19T07:22:09;9.30;99.90
14188;DHT22;7175;51.978;5.330;2023-03-19T07:24:37;9.40;99.90
14188;DHT22;7175;51.978;5.330;2023-03-19T07:27:05;9.40;99.90
14188;DHT22;7175;51.978;5.330;2023-03-19T07:29:33;9.40;99.90
14188;DHT22;7175;51.978;5.330;2023-03-19T07:32:02;9.50;99.90
14188;DHT22;7175;51.978;5.330;2023-03-19T07:34:30;9.50;99.90
14188;DHT22;7175;51.978;5.330;2023-03-19T07:37:00;9.50;99.90
14188;DHT22;7175;51.978;5.330;2023-03-19T07:39:28;9.50;99.90
14188;DHT22;7175;51.978;5.330;2023-03-19T07:41:56;9.50;99.90
14188;DHT22;7175;51.978;5.330;2023-03-19T07:44:24;9.60;99.90
14188;DHT22;7175;51.978;5.330;2023-03-19T07:46:52;9.50;99.90
14188;DHT22;7175;51.978;5.330;2023-03-19T07:49:21;9.60;99.90
14188;DHT22;7175;51.978;5.330;2023-03-19T07:51:49;9.50;99.90
14188;DHT22;7175;51.978;5.330;2023-03-19T07:54:18;9.50;99.90
14188;DHT22;7175;51.978;5.330;2023-03-19T07:56:47;9.60;99.90
14188;DHT22;7175;51.978;5.330;2023-03-19T07:59:15;9.70;99.90
14188;DHT22;7175;51.978;5.330;2023-03-19T08:01:43;9.70;99.90
14188;DHT22;7175;51.978;5.330;2023-03-19T08:04:11;9.80;99.90
14188;DHT22;7175;51.978;5.330;2023-03-19T08:06:40;9.80;99.90
14188;DHT22;7175;51.978;5.330;2023-03-19T08:09:08;9.80;99.90
14188;DHT22;7175;51.978;5.330;2023-03-19T08:11:37;9.90;99.90
14188;DHT22;7175;51.978;5.330;2023-03-19T08:14:05;9.90;99.90
14188;DHT22;7175;51.978;5.330;2023-03-19T08:16:34;9.90;99.90
14188;DHT22;7175;51.978;5.330;2023-03-19T08:19:02;9.90;99.90
14188;DHT22;7175;51.978;5.330;2023-03-19T08:21:30;9.90;99.90
14188;DHT22;7175;51.978;5.330;2023-03-19T08:23:59;10.00;99.90
14188;DHT22;7175;51.978;5.330;2023-03-19T08:26:30;10.10;99.90
14188;DHT22;7175;51.978;5.330;2023-03-19T08:29:00;10.10;99.90
14188;DHT22;7175;51.978;5.330;2023-03-19T08:31:29;10.10;99.90
14188;DHT22;7175;51.978;5.330;2023-03-19T08:33:58;10.20;99.90
14188;DHT22;7175;51.978;5.330;2023-03-19T08:36:29;10.20;99.90
14188;DHT22;7175;51.978;5.330;2023-03-19T08:38:57;10.20;99.90
14188;DHT22;7175;51.978;5.330;2023-03-19T08:41:26;10.30;99.90
14188;DHT22;7175;51.978;5.330;2023-03-19T08:43:54;10.40;99.90
14188;DHT22;7175;51.978;5.330;2023-03-19T08:46:23;10.50;99.90
14188;DHT22;7175;51.978;5.330;2023-03-19T08:48:52;10.60;99.90
14188;DHT22;7175;51.978;5.330;2023-03-19T08:51:21;10.60;99.90
14188;DHT22;7175;51.978;5.330;2023-03-19T08:53:50;10.60;99.90
14188;DHT22;7175;51.978;5.330;2023-03-19T08:56:18;10.50;99.90
14188;DHT22;7175;51.978;5.330;2023-03-19T08:58:47;10.50;99.90
14188;DHT22;7175;51.978;5.330;2023-03-19T09:01:15;10.60;99.90
14188;DHT22;7175;51.978;5.330;2023-03-19T09:03:45;10.70;99.90
14188;DHT22;7175;51.978;5.330;2023-03-19T09:06:13;10.80;99.90
14188;DHT22;7175;51.978;5.330;2023-03-19T09:08:41;10.70;99.90
14188;DHT22;7175;51.978;5.330;2023-03-19T09:11:10;10.80;99.90
14188;DHT22;7175;51.978;5.330;2023-03-19T09:13:40;10.90;99.90
14188;DHT22;7175;51.978;5.330;2023-03-19T09:16:08;10.80;99.90
14188;DHT22;7175;51.978;5.330;2023-03-19T09:18:37;10.80;99.90
14188;DHT22;7175;51.978;5.330;2023-03-19T09:21:06;10.80;99.90
14188;DHT22;7175;51.978;5.330;2023-03-19T09:23:35;10.80;99.90
14188;DHT22;7175;51.978;5.330;2023-03-19T09:26:03;10.70;99.90
14188;DHT22;7175;51.978;5.330;2023-03-19T09:28:32;10.80;99.90
14188;DHT22;7175;51.978;5.330;2023-03-19T09:31:00;10.80;99.90
14188;DHT22;7175;51.978;5.330;2023-03-19T09:33:33;10.80;99.90
14188;DHT22;7175;51.978;5.330;2023-03-19T09:36:01;10.70;99.90
14188;DHT22;7175;51.978;5.330;2023-03-19T09:38:31;10.60;99.90
14188;DHT22;7175;51.978;5.330;2023-03-19T09:41:06;10.40;99.90
14188;DHT22;7175;51.978;5.330;2023-03-19T09:43:50;10.40;99.90
14188;DHT22;7175;51.978;5.330;2023-03-19T09:46:28;10.50;99.90
14188;DHT22;7175;51.978;5.330;2023-03-19T09:49:03;10.60;99.90
14188;DHT22;7175;51.978;5.330;2023-03-19T09:51:40;10.50;99.90
14188;DHT22;7175;51.978;5.330;2023-03-19T09:54:29;10.40;99.90
14188;DHT22;7175;51.978;5.330;2023-03-19T09:56:58;10.50;99.90
14188;DHT22;7175;51.978;5.330;2023-03-19T09:59:27;10.60;99.90
14188;DHT22;7175;51.978;5.330;2023-03-19T10:02:00;10.80;99.90
14188;DHT22;7175;51.978;5.330;2023-03-19T10:04:51;10.80;99.90
14188;DHT22;7175;51.978;5.330;2023-03-19T10:07:30;11.00;99.90
14188;DHT22;7175;51.978;5.330;2023-03-19T10:10:21;11.00;99.90
14188;DHT22;7175;51.978;5.330;2023-03-19T10:12:58;11.20;99.90
14188;DHT22;7175;51.978;5.330;2023-03-19T10:15:30;11.30;99.90
14188;DHT22;7175;51.978;5.330;2023-03-19T10:18:02;11.50;99.90
14188;DHT22;7175;51.978;5.330;2023-03-19T10:20:40;11.50;99.90
14188;DHT22;7175;51.978;5.330;2023-03-19T10:23:27;11.40;99.90
14188;DHT22;7175;51.978;5.330;2023-03-19T10:26:02;11.40;99.90
14188;DHT22;7175;51.978;5.330;2023-03-19T10:28:31;11.50;99.90
14188;DHT22;7175;51.978;5.330;2023-03-19T10:31:11;11.60;99.90
14188;DHT22;7175;51.978;5.330;2023-03-19T10:33:43;11.60;99.90
14188;DHT22;7175;51.978;5.330;2023-03-19T10:36:12;11.60;99.90
14188;DHT22;7175;51.978;5.330;2023-03-19T10:38:42;11.70;99.90
14188;DHT22;7175;51.978;5.330;2023-03-19T10:41:22;11.70;99.90
14188;DHT22;7175;51.978;5.330;2023-03-19T10:43:53;11.60;99.90
14188;DHT22;7175;51.978;5.330;2023-03-19T10:46:21;11.70;99.90
14188;DHT22;7175;51.978;5.330;2023-03-19T10:48:50;11.60;99.90
14188;DHT22;7175;51.978;5.330;2023-03-19T10:51:21;11.60;99.90
14188;DHT22;7175;51.978;5.330;2023-03-19T10:53:51;11.40;99.90
14188;DHT22;7175;51.978;5.330;2023-03-19T10:56:24;11.40;99.90
14188;DHT22;7175;51.978;5.330;2023-03-19T10:58:58;11.60;99.90
14188;DHT22;7175;51.978;5.330;2023-03-19T11:01:30;11.60;99.90
14188;DHT22;7175;51.978;5.330;2023-03-19T11:04:00;11.50;99.90
14188;DHT22;7175;51.978;5.330;2023-03-19T11:06:32;11.50;99.90
14188;DHT22;7175;51.978;5.330;2023-03-19T11:09:02;11.50;99.90
14188;DHT22;7175;51.978;5.330;2023-03-19T11:11:44;11.50;99.90
14188;DHT22;7175;51.978;5.330;2023-03-19T11:14:18;11.50;99.90
14188;DHT22;7175;51.978;5.330;2023-03-19T11:16:54;11.60;99.90
14188;DHT22;7175;51.978;5.330;2023-03-19T11:19:25;11.50;99.90
14188;DHT22;7175;51.978;5.330;2023-03-19T11:22:01;11.50;99.90
14188;DHT22;7175;51.978;5.330;2023-03-19T11:24:36;11.60;99.90
14188;DHT22;7175;51.978;5.330;2023-03-19T11:27:06;11.60;99.90
14188;DHT22;7175;51.978;5.330;2023-03-19T11:29:40;11.70;99.90
14188;DHT22;7175;51.978;5.330;2023-03-19T11:32:21;11.70;99.90
14188;DHT22;7175;51.978;5.330;2023-03-19T11:34:55;11.70;99.90
14188;DHT22;7175;51.978;5.330;2023-03-19T11:37:31;11.80;99.90
14188;DHT22;7175;51.978;5.330;2023-03-19T11:40:08;11.80;99.90
14188;DHT22;7175;51.978;5.330;2023-03-19T11:42:55;11.80;99.90
14188;DHT22;7175;51.978;5.330;2023-03-19T11:45:31;12.00;99.90
14188;DHT22;7175;51.978;5.330;2023-03-19T11:48:22;12.00;99.90
14188;DHT22;7175;51.978;5.330;2023-03-19T11:50:57;12.20;99.90
14188;DHT22;7175;51.978;5.330;2023-03-19T11:53:30;12.30;99.90
14188;DHT22;7175;51.978;5.330;2023-03-19T11:56:07;12.30;99.90
14188;DHT22;7175;51.978;5.330;2023-03-19T11:58:56;12.40;99.90
14188;DHT22;7175;51.978;5.330;2023-03-19T12:01:41;12.60;99.90
14188;DHT22;7175;51.978;5.330;2023-03-19T12:04:30;12.90;99.90
14188;DHT22;7175;51.978;5.330;2023-03-19T12:07:07;13.20;99.90
14188;DHT22;7175;51.978;5.330;2023-03-19T12:09:47;13.30;99.90
14188;DHT22;7175;51.978;5.330;2023-03-19T12:12:23;13.30;99.90
14188;DHT22;7175;51.978;5.330;2023-03-19T12:15:04;13.40;99.90
14188;DHT22;7175;51.978;5.330;2023-03-19T12:17:45;13.40;99.90
14188;DHT22;7175;51.978;5.330;2023-03-19T12:20:32;13.40;99.90
14188;DHT22;7175;51.978;5.330;2023-03-19T12:23:11;13.20;99.90
14188;DHT22;7175;51.978;5.330;2023-03-19T12:25:56;13.40;99.90
14188;DHT22;7175;51.978;5.330;2023-03-19T12:28:32;13.50;99.90
14188;DHT22;7175;51.978;5.330;2023-03-19T12:31:26;13.70;99.90
14188;DHT22;7175;51.978;5.330;2023-03-19T12:34:08;13.60;99.90
14188;DHT22;7175;51.978;5.330;2023-03-19T12:36:46;13.70;99.90
14188;DHT22;7175;51.978;5.330;2023-03-19T12:39:17;13.70;99.90
14188;DHT22;7175;51.978;5.330;2023-03-19T12:41:48;13.60;99.90
14188;DHT22;7175;51.978;5.330;2023-03-19T12:44:21;13.70;99.90
14188;DHT22;7175;51.978;5.330;2023-03-19T12:46:56;13.80;99.90
14188;DHT22;7175;51.978;5.330;2023-03-19T12:49:33;14.20;99.90
14188;DHT22;7175;51.978;5.330;2023-03-19T12:52:11;14.10;99.90
14188;DHT22;7175;51.978;5.330;2023-03-19T12:54:45;13.80;99.90
14188;DHT22;7175;51.978;5.330;2023-03-19T12:57:20;13.70;99.90
14188;DHT22;7175;51.978;5.330;2023-03-19T12:59:54;13.80;99.90
14188;DHT22;7175;51.978;5.330;2023-03-19T13:02:31;13.80;99.90
14188;DHT22;7175;51.978;5.330;2023-03-19T13:05:06;13.90;99.90
14188;DHT22;7175;51.978;5.330;2023-03-19T13:07:42;13.90;99.90
14188;DHT22;7175;51.978;5.330;2023-03-19T13:10:18;14.00;99.90
14188;DHT22;7175;51.978;5.330;2023-03-19T13:12:48;14.10;99.90
14188;DHT22;7175;51.978;5.330;2023-03-19T13:15:23;14.10;99.90
14188;DHT22;7175;51.978;5.330;2023-03-19T13:18:00;14.10;99.90
14188;DHT22;7175;51.978;5.330;2023-03-19T13:20:44;14.00;99.90
14188;DHT22;7175;51.978;5.330;2023-03-19T13:23:21;14.10;99.90
14188;DHT22;7175;51.978;5.330;2023-03-19T13:25:54;14.00;99.90
14188;DHT22;7175;51.978;5.330;2023-03-19T13:28:28;14.20;99.90
14188;DHT22;7175;51.978;5.330;2023-03-19T13:31:01;14.20;99.90
14188;DHT22;7175;51.978;5.330;2023-03-19T13:33:33;14.20;99.90
14188;DHT22;7175;51.978;5.330;2023-03-19T13:36:05;14.10;99.90
14188;DHT22;7175;51.978;5.330;2023-03-19T13:38:39;14.10;99.90
14188;DHT22;7175;51.978;5.330;2023-03-19T13:44:27;14.00;99.90
14188;DHT22;7175;51.978;5.330;2023-03-19T13:46:56;13.90;99.90
14188;DHT22;7175;51.978;5.330;2023-03-19T13:49:30;14.00;99.90
14188;DHT22;7175;51.978;5.330;2023-03-19T13:54:51;14.10;99.90
14188;DHT22;7175;51.978;5.330;2023-03-19T13:57:33;14.20;99.90
14188;DHT22;7175;51.978;5.330;2023-03-19T14:03:18;14.30;99.90
14188;DHT22;7175;51.978;5.330;2023-03-19T14:05:50;14.40;99.90
14188;DHT22;7175;51.978;5.330;2023-03-19T14:08:21;14.40;99.90
14188;DHT22;7175;51.978;5.330;2023-03-19T14:10:52;14.60;99.90
14188;DHT22;7175;51.978;5.330;2023-03-19T14:13:33;14.70;99.90
14188;DHT22;7175;51.978;5.330;2023-03-19T14:16:09;14.90;99.90
14188;DHT22;7175;51.978;5.330;2023-03-19T14:18:42;14.80;99.90
14188;DHT22;7175;51.978;5.330;2023-03-19T14:21:15;14.90;99.90
14188;DHT22;7175;51.978;5.330;2023-03-19T14:23:52;14.70;99.90
14188;DHT22;7175;51.978;5.330;2023-03-19T14:26:23;14.70;99.90
14188;DHT22;7175;51.978;5.330;2023-03-19T14:28:55;14.70;99.90
14188;DHT22;7175;51.978;5.330;2023-03-19T14:31:44;14.80;99.90
14188;DHT22;7175;51.978;5.330;2023-03-19T14:34:19;14.70;99.90
14188;DHT22;7175;51.978;5.330;2023-03-19T14:36:56;14.80;99.90
14188;DHT22;7175;51.978;5.330;2023-03-19T14:39:27;14.80;99.90
14188;DHT22;7175;51.978;5.330;2023-03-19T14:42:02;14.80;99.90
14188;DHT22;7175;51.978;5.330;2023-03-19T14:47:44;14.70;99.90
14188;DHT22;7175;51.978;5.330;2023-03-19T14:50:26;14.70;99.90
14188;DHT22;7175;51.978;5.330;2023-03-19T14:53:03;14.60;99.90
14188;DHT22;7175;51.978;5.330;2023-03-19T14:55:37;14.50;99.90
14188;DHT22;7175;51.978;5.330;2023-03-19T14:58:05;14.60;99.90
14188;DHT22;7175;51.978;5.330;2023-03-19T15:00:39;14.60;99.90
14188;DHT22;7175;51.978;5.330;2023-03-19T15:03:28;14.60;99.90
14188;DHT22;7175;51.978;5.330;2023-03-19T15:05:59;14.60;99.90
14188;DHT22;7175;51.978;5.330;2023-03-19T15:08:31;14.50;99.90
14188;DHT22;7175;51.978;5.330;2023-03-19T15:11:10;14.50;99.90
14188;DHT22;7175;51.978;5.330;2023-03-19T15:13:57;14.40;99.90
14188;DHT22;7175;51.978;5.330;2023-03-19T15:16:32;14.30;99.90
14188;DHT22;7175;51.978;5.330;2023-03-19T15:19:07;14.20;99.90
14188;DHT22;7175;51.978;5.330;2023-03-19T15:21:36;14.30;99.90
14188;DHT22;7175;51.978;5.330;2023-03-19T15:24:07;14.10;99.90
14188;DHT22;7175;51.978;5.330;2023-03-19T15:26:41;14.10;99.90
14188;DHT22;7175;51.978;5.330;2023-03-19T15:29:10;14.10;99.90
14188;DHT22;7175;51.978;5.330;2023-03-19T15:31:41;14.00;99.90
14188;DHT22;7175;51.978;5.330;2023-03-19T15:34:24;14.00;99.90
14188;DHT22;7175;51.978;5.330;2023-03-19T15:36:56;14.00;99.90
14188;DHT22;7175;51.978;5.330;2023-03-19T15:39:29;14.10;99.90
14188;DHT22;7175;51.978;5.330;2023-03-19T15:42:00;14.10;99.90
14188;DHT22;7175;51.978;5.330;2023-03-19T15:44:34;14.20;99.90
14188;DHT22;7175;51.978;5.330;2023-03-19T15:47:05;14.10;99.90
14188;DHT22;7175;51.978;5.330;2023-03-19T15:49:38;14.10;99.90
14188;DHT22;7175;51.978;5.330;2023-03-19T15:52:10;14.10;99.90
14188;DHT22;7175;51.978;5.330;2023-03-19T15:54:41;14.00;99.90
14188;DHT22;7175;51.978;5.330;2023-03-19T15:57:11;13.90;99.90
14188;DHT22;7175;51.978;5.330;2023-03-19T15:59:41;13.80;99.90
14188;DHT22;7175;51.978;5.330;2023-03-19T16:02:15;13.80;99.90
14188;DHT22;7175;51.978;5.330;2023-03-19T16:04:45;13.70;99.90
14188;DHT22;7175;51.978;5.330;2023-03-19T16:07:39;13.60;99.90
14188;DHT22;7175;51.978;5.330;2023-03-19T16:10:32;13.50;99.90
14188;DHT22;7175;51.978;5.330;2023-03-19T16:13:02;13.50;99.90
14188;DHT22;7175;51.978;5.330;2023-03-19T16:15:39;13.50;99.90
14188;DHT22;7175;51.978;5.330;2023-03-19T16:18:22;13.50;99.90
14188;DHT22;7175;51.978;5.330;2023-03-19T16:21:02;13.40;99.90
14188;DHT22;7175;51.978;5.330;2023-03-19T16:23:33;13.40;99.90
14188;DHT22;7175;51.978;5.330;2023-03-19T16:26:14;13.50;99.90
14188;DHT22;7175;51.978;5.330;2023-03-19T16:28:47;13.30;99.90
14188;DHT22;7175;51.978;5.330;2023-03-19T16:31:22;13.20;99.90